sensor_id;sensor_type;location;lat;lon;timestamp;temperature;humidity
33067;DHT22;19428;49.024;8.366;2022-08-21T00:01:16;19.50;99.90
33067;DHT22;19428;49.024;8.366;2022-08-21T00:03:43;19.40;99.90
33067;DHT22;19428;49.024;8.366;2022-08-21T00:06:09;19.30;99.90
33067;DHT22;19428;49.024;8.366;2022-08-21T00:08:35;19.40;99.90
33067;DHT22;19428;49.024;8.366;2022-08-21T00:11:01;19.30;99.90
33067;DHT22;19428;49.024;8.366;2022-08-21T00:13:27;19.20;99.90
33067;DHT22;19428;49.024;8.366;2022-08-21T00:15:52;19.20;99.90
33067;DHT22;19428;49.024;8.366;2022-08-21T00:18:19;19.20;99.90
33067;DHT22;19428;49.024;8.366;2022-08-21T00:20:45;19.20;99.90
33067;DHT22;19428;49.024;8.366;2022-08-21T00:23:11;19.10;99.90
33067;DHT22;19428;49.024;8.366;2022-08-21T00:25:38;19.00;99.90
33067;DHT22;19428;49.024;8.366;2022-08-21T00:28:04;18.90;99.90
33067;DHT22;19428;49.024;8.366;2022-08-21T00:30:32;18.90;99.90
33067;DHT22;19428;49.024;8.366;2022-08-21T00:32:59;18.90;99.90
33067;DHT22;19428;49.024;8.366;2022-08-21T00:35:31;18.80;99.90
33067;DHT22;19428;49.024;8.366;2022-08-21T00:37:58;18.80;99.90
33067;DHT22;19428;49.024;8.366;2022-08-21T00:40:35;18.80;99.90
33067;DHT22;19428;49.024;8.366;2022-08-21T00:43:07;18.70;99.90
33067;DHT22;19428;49.024;8.366;2022-08-21T00:45:33;18.70;99.90
33067;DHT22;19428;49.024;8.366;2022-08-21T00:47:59;18.60;99.90
33067;DHT22;19428;49.024;8.366;2022-08-21T00:50:28;18.60;99.90
33067;DHT22;19428;49.024;8.366;2022-08-21T00:52:54;18.60;99.90
33067;DHT22;19428;49.024;8.366;2022-08-21T00:55:22;18.60;99.90
33067;DHT22;19428;49.024;8.366;2022-08-21T00:57:52;18.60;99.90
33067;DHT22;19428;49.024;8.366;2022-08-21T01:00:23;18.60;99.90
33067;DHT22;19428;49.024;8.366;2022-08-21T01:02:49;18.50;99.90
33067;DHT22;19428;49.024;8.366;2022-08-21T01:05:15;18.50;99.90
33067;DHT22;19428;49.024;8.366;2022-08-21T01:07:42;18.50;99.90
33067;DHT22;19428;49.024;8.366;2022-08-21T01:10:08;18.50;99.90
33067;DHT22;19428;49.024;8.366;2022-08-21T01:12:34;18.40;99.90
33067;DHT22;19428;49.024;8.366;2022-08-21T01:15:02;18.40;99.90
33067;DHT22;19428;49.024;8.366;2022-08-21T01:17:28;18.30;99.90
33067;DHT22;19428;49.024;8.366;2022-08-21T01:19:58;18.30;99.90
33067;DHT22;19428;49.024;8.366;2022-08-21T01:22:24;18.30;99.90
33067;DHT22;19428;49.024;8.366;2022-08-21T01:24:49;18.20;99.90
33067;DHT22;19428;49.024;8.366;2022-08-21T01:27:15;18.20;99.90
33067;DHT22;19428;49.024;8.366;2022-08-21T01:29:55;18.20;99.90
33067;DHT22;19428;49.024;8.366;2022-08-21T01:32:22;18.20;99.90
33067;DHT22;19428;49.024;8.366;2022-08-21T01:34:50;18.10;99.90
33067;DHT22;19428;49.024;8.366;2022-08-21T01:37:16;18.00;99.90
33067;DHT22;19428;49.024;8.366;2022-08-21T01:39:42;18.00;99.90
33067;DHT22;19428;49.024;8.366;2022-08-21T01:42:08;17.90;99.90
33067;DHT22;19428;49.024;8.366;2022-08-21T01:44:34;17.80;99.90
33067;DHT22;19428;49.024;8.366;2022-08-21T01:47:05;17.70;99.90
33067;DHT22;19428;49.024;8.366;2022-08-21T01:49:31;17.70;99.90
33067;DHT22;19428;49.024;8.366;2022-08-21T01:51:57;17.70;99.90
33067;DHT22;19428;49.024;8.366;2022-08-21T01:54:22;17.70;99.90
33067;DHT22;19428;49.024;8.366;2022-08-21T01:56:50;17.70;99.90
33067;DHT22;19428;49.024;8.366;2022-08-21T01:59:16;17.70;99.90
33067;DHT22;19428;49.024;8.366;2022-08-21T02:01:42;17.60;99.90
33067;DHT22;19428;49.024;8.366;2022-08-21T02:04:09;17.60;99.90
33067;DHT22;19428;49.024;8.366;2022-08-21T02:06:35;17.60;99.90
33067;DHT22;19428;49.024;8.366;2022-08-21T02:09:05;17.60;99.90
33067;DHT22;19428;49.024;8.366;2022-08-21T02:11:32;17.50;99.90
33067;DHT22;19428;49.024;8.366;2022-08-21T02:13:58;17.60;99.90
33067;DHT22;19428;49.024;8.366;2022-08-21T02:16:23;17.40;99.90
33067;DHT22;19428;49.024;8.366;2022-08-21T02:18:49;17.50;99.90
33067;DHT22;19428;49.024;8.366;2022-08-21T02:21:15;17.40;99.90
33067;DHT22;19428;49.024;8.366;2022-08-21T02:23:41;17.40;99.90
33067;DHT22;19428;49.024;8.366;2022-08-21T02:26:07;17.40;99.90
33067;DHT22;19428;49.024;8.366;2022-08-21T02:28:34;17.30;99.90
33067;DHT22;19428;49.024;8.366;2022-08-21T02:31:00;17.30;99.90
33067;DHT22;19428;49.024;8.366;2022-08-21T02:33:26;17.30;99.90
33067;DHT22;19428;49.024;8.366;2022-08-21T02:35:53;17.30;99.90
33067;DHT22;19428;49.024;8.366;2022-08-21T02:38:25;17.30;99.90
33067;DHT22;19428;49.024;8.366;2022-08-21T02:40:52;17.30;99.90
33067;DHT22;19428;49.024;8.366;2022-08-21T02:43:19;17.20;99.90
33067;DHT22;19428;49.024;8.366;2022-08-21T02:45:46;17.20;99.90
33067;DHT22;19428;49.024;8.366;2022-08-21T02:48:15;17.20;99.90
33067;DHT22;19428;49.024;8.366;2022-08-21T02:50:44;17.20;99.90
33067;DHT22;19428;49.024;8.366;2022-08-21T02:53:11;17.20;99.90
33067;DHT22;19428;49.024;8.366;2022-08-21T02:55:43;17.20;99.90
33067;DHT22;19428;49.024;8.366;2022-08-21T02:58:10;17.10;99.90
33067;DHT22;19428;49.024;8.366;2022-08-21T03:00:36;17.00;99.90
33067;DHT22;19428;49.024;8.366;2022-08-21T03:03:03;16.90;99.90
33067;DHT22;19428;49.024;8.366;2022-08-21T03:05:30;16.80;99.90
33067;DHT22;19428;49.024;8.366;2022-08-21T03:08:00;16.80;99.90
33067;DHT22;19428;49.024;8.366;2022-08-21T03:10:27;16.80;99.90
33067;DHT22;19428;49.024;8.366;2022-08-21T03:12:53;16.80;99.90
33067;DHT22;19428;49.024;8.366;2022-08-21T03:15:21;16.80;99.90
33067;DHT22;19428;49.024;8.366;2022-08-21T03:17:52;16.90;99.90
33067;DHT22;19428;49.024;8.366;2022-08-21T03:20:22;16.90;99.90
33067;DHT22;19428;49.024;8.366;2022-08-21T03:22:49;16.80;99.90
33067;DHT22;19428;49.024;8.366;2022-08-21T03:25:16;16.80;99.90
33067;DHT22;19428;49.024;8.366;2022-08-21T03:27:42;16.80;99.90
33067;DHT22;19428;49.024;8.366;2022-08-21T03:30:08;16.80;99.90
33067;DHT22;19428;49.024;8.366;2022-08-21T03:32:35;16.70;99.90
33067;DHT22;19428;49.024;8.366;2022-08-21T03:35:02;16.70;99.90
33067;DHT22;19428;49.024;8.366;2022-08-21T03:37:27;16.70;99.90
33067;DHT22;19428;49.024;8.366;2022-08-21T03:39:53;16.80;99.90
33067;DHT22;19428;49.024;8.366;2022-08-21T03:42:20;16.80;99.90
33067;DHT22;19428;49.024;8.366;2022-08-21T03:44:46;16.70;99.90
33067;DHT22;19428;49.024;8.366;2022-08-21T03:47:12;16.60;99.90
33067;DHT22;19428;49.024;8.366;2022-08-21T03:49:38;16.60;99.90
33067;DHT22;19428;49.024;8.366;2022-08-21T03:52:04;16.60;99.90
33067;DHT22;19428;49.024;8.366;2022-08-21T03:54:30;16.60;99.90
33067;DHT22;19428;49.024;8.366;2022-08-21T03:56:56;16.50;99.90
33067;DHT22;19428;49.024;8.366;2022-08-21T03:59:22;16.50;99.90
33067;DHT22;19428;49.024;8.366;2022-08-21T04:01:57;16.50;99.90
33067;DHT22;19428;49.024;8.366;2022-08-21T04:04:24;16.50;99.90
33067;DHT22;19428;49.024;8.366;2022-08-21T04:06:50;16.50;99.90
33067;DHT22;19428;49.024;8.366;2022-08-21T04:09:17;16.50;99.90
33067;DHT22;19428;49.024;8.366;2022-08-21T04:11:42;16.50;99.90
33067;DHT22;19428;49.024;8.366;2022-08-21T04:14:08;16.50;99.90
33067;DHT22;19428;49.024;8.366;2022-08-21T04:16:34;16.40;99.90
33067;DHT22;19428;49.024;8.366;2022-08-21T04:18:59;16.30;99.90
33067;DHT22;19428;49.024;8.366;2022-08-21T04:21:25;16.10;99.90
33067;DHT22;19428;49.024;8.366;2022-08-21T04:23:51;15.90;99.90
33067;DHT22;19428;49.024;8.366;2022-08-21T04:26:19;15.80;99.90
33067;DHT22;19428;49.024;8.366;2022-08-21T04:28:44;15.80;99.90
33067;DHT22;19428;49.024;8.366;2022-08-21T04:31:10;15.80;99.90
33067;DHT22;19428;49.024;8.366;2022-08-21T04:33:36;15.80;99.90
33067;DHT22;19428;49.024;8.366;2022-08-21T04:36:01;16.00;99.90
33067;DHT22;19428;49.024;8.366;2022-08-21T04:38:27;16.20;99.90
33067;DHT22;19428;49.024;8.366;2022-08-21T04:40:53;16.30;99.90
33067;DHT22;19428;49.024;8.366;2022-08-21T04:43:19;16.20;99.90
33067;DHT22;19428;49.024;8.366;2022-08-21T04:45:47;16.20;99.90
33067;DHT22;19428;49.024;8.366;2022-08-21T04:48:16;16.20;99.90
33067;DHT22;19428;49.024;8.366;2022-08-21T04:53:36;16.20;99.90
33067;DHT22;19428;49.024;8.366;2022-08-21T04:56:08;16.30;99.90
33067;DHT22;19428;49.024;8.366;2022-08-21T04:58:36;16.30;99.90
33067;DHT22;19428;49.024;8.366;2022-08-21T05:01:04;16.30;99.90
33067;DHT22;19428;49.024;8.366;2022-08-21T05:03:30;16.30;99.90
33067;DHT22;19428;49.024;8.366;2022-08-21T05:05:58;16.40;99.90
33067;DHT22;19428;49.024;8.366;2022-08-21T05:08:25;16.40;99.90
33067;DHT22;19428;49.024;8.366;2022-08-21T05:10:53;16.40;99.90
33067;DHT22;19428;49.024;8.366;2022-08-21T05:13:19;16.50;99.90
33067;DHT22;19428;49.024;8.366;2022-08-21T05:15:45;16.50;99.90
33067;DHT22;19428;49.024;8.366;2022-08-21T05:18:11;16.40;99.90
33067;DHT22;19428;49.024;8.366;2022-08-21T05:20:37;16.40;99.90
33067;DHT22;19428;49.024;8.366;2022-08-21T05:23:08;16.40;99.90
33067;DHT22;19428;49.024;8.366;2022-08-21T05:25:34;16.40;99.90
33067;DHT22;19428;49.024;8.366;2022-08-21T05:27:59;16.50;99.90
33067;DHT22;19428;49.024;8.366;2022-08-21T05:30:25;16.50;99.90
33067;DHT22;19428;49.024;8.366;2022-08-21T05:32:56;16.50;99.90
33067;DHT22;19428;49.024;8.366;2022-08-21T05:35:22;16.50;99.90
33067;DHT22;19428;49.024;8.366;2022-08-21T05:37:48;16.50;99.90
33067;DHT22;19428;49.024;8.366;2022-08-21T05:40:13;16.50;99.90
33067;DHT22;19428;49.024;8.366;2022-08-21T05:42:39;16.60;99.90
33067;DHT22;19428;49.024;8.366;2022-08-21T05:45:05;16.70;99.90
33067;DHT22;19428;49.024;8.366;2022-08-21T05:47:31;16.70;99.90
33067;DHT22;19428;49.024;8.366;2022-08-21T05:49:56;16.90;99.90
33067;DHT22;19428;49.024;8.366;2022-08-21T05:52:22;17.10;99.90
33067;DHT22;19428;49.024;8.366;2022-08-21T05:54:49;17.40;99.90
33067;DHT22;19428;49.024;8.366;2022-08-21T05:57:15;17.70;99.90
33067;DHT22;19428;49.024;8.366;2022-08-21T05:59:41;17.70;99.90
33067;DHT22;19428;49.024;8.366;2022-08-21T06:02:06;17.80;99.90
33067;DHT22;19428;49.024;8.366;2022-08-21T06:04:40;17.70;99.90
33067;DHT22;19428;49.024;8.366;2022-08-21T06:07:06;17.80;99.90
33067;DHT22;19428;49.024;8.366;2022-08-21T06:09:32;17.80;99.90
33067;DHT22;19428;49.024;8.366;2022-08-21T06:12:04;18.10;99.90
33067;DHT22;19428;49.024;8.366;2022-08-21T06:14:30;18.20;99.90
33067;DHT22;19428;49.024;8.366;2022-08-21T06:17:02;18.30;99.90
33067;DHT22;19428;49.024;8.366;2022-08-21T06:19:28;18.40;99.90
33067;DHT22;19428;49.024;8.366;2022-08-21T06:21:54;18.60;99.90
33067;DHT22;19428;49.024;8.366;2022-08-21T06:24:19;18.60;99.90
33067;DHT22;19428;49.024;8.366;2022-08-21T06:26:45;18.40;99.90
33067;DHT22;19428;49.024;8.366;2022-08-21T06:29:12;18.60;99.90
33067;DHT22;19428;49.024;8.366;2022-08-21T06:31:41;18.70;99.90
33067;DHT22;19428;49.024;8.366;2022-08-21T06:34:07;19.00;99.90
33067;DHT22;19428;49.024;8.366;2022-08-21T06:36:33;18.80;99.90
33067;DHT22;19428;49.024;8.366;2022-08-21T06:38:59;18.70;99.90
33067;DHT22;19428;49.024;8.366;2022-08-21T06:41:25;18.70;99.90
33067;DHT22;19428;49.024;8.366;2022-08-21T06:43:50;18.60;99.90
33067;DHT22;19428;49.024;8.366;2022-08-21T06:46:16;18.60;99.90
33067;DHT22;19428;49.024;8.366;2022-08-21T06:48:42;18.40;99.90
33067;DHT22;19428;49.024;8.366;2022-08-21T06:51:07;18.50;99.90
33067;DHT22;19428;49.024;8.366;2022-08-21T06:53:34;18.60;99.90
33067;DHT22;19428;49.024;8.366;2022-08-21T06:55:59;18.70;99.90
33067;DHT22;19428;49.024;8.366;2022-08-21T06:58:25;18.70;99.90
33067;DHT22;19428;49.024;8.366;2022-08-21T07:00:51;18.80;99.90
33067;DHT22;19428;49.024;8.366;2022-08-21T07:03:29;18.70;99.90
33067;DHT22;19428;49.024;8.366;2022-08-21T07:05:55;18.70;99.90
33067;DHT22;19428;49.024;8.366;2022-08-21T07:08:22;18.70;99.90
33067;DHT22;19428;49.024;8.366;2022-08-21T07:10:48;18.90;99.90
33067;DHT22;19428;49.024;8.366;2022-08-21T07:13:14;19.00;99.90
33067;DHT22;19428;49.024;8.366;2022-08-21T07:15:40;19.10;99.90
33067;DHT22;19428;49.024;8.366;2022-08-21T07:18:06;19.10;99.90
33067;DHT22;19428;49.024;8.366;2022-08-21T07:20:32;19.30;99.90
33067;DHT22;19428;49.024;8.366;2022-08-21T07:23:01;19.30;99.90
33067;DHT22;19428;49.024;8.366;2022-08-21T07:25:27;19.20;99.90
33067;DHT22;19428;49.024;8.366;2022-08-21T07:27:53;19.40;99.90
33067;DHT22;19428;49.024;8.366;2022-08-21T07:30:19;19.40;99.90
33067;DHT22;19428;49.024;8.366;2022-08-21T07:32:45;19.60;99.90
33067;DHT22;19428;49.024;8.366;2022-08-21T07:35:10;19.60;99.90
33067;DHT22;19428;49.024;8.366;2022-08-21T07:37:36;19.70;99.90
33067;DHT22;19428;49.024;8.366;2022-08-21T07:40:03;19.60;99.90
33067;DHT22;19428;49.024;8.366;2022-08-21T07:42:29;19.70;99.90
33067;DHT22;19428;49.024;8.366;2022-08-21T07:44:55;19.80;99.90
33067;DHT22;19428;49.024;8.366;2022-08-21T07:47:21;20.00;99.90
33067;DHT22;19428;49.024;8.366;2022-08-21T07:49:46;20.00;99.90
33067;DHT22;19428;49.024;8.366;2022-08-21T07:52:12;19.90;99.90
33067;DHT22;19428;49.024;8.366;2022-08-21T07:54:37;20.00;99.90
33067;DHT22;19428;49.024;8.366;2022-08-21T07:57:03;19.90;99.90
33067;DHT22;19428;49.024;8.366;2022-08-21T07:59:29;20.00;99.90
33067;DHT22;19428;49.024;8.366;2022-08-21T08:01:55;20.20;99.90
33067;DHT22;19428;49.024;8.366;2022-08-21T08:04:21;20.40;99.90
33067;DHT22;19428;49.024;8.366;2022-08-21T08:06:47;20.50;99.90
33067;DHT22;19428;49.024;8.366;2022-08-21T08:09:13;20.60;99.90
33067;DHT22;19428;49.024;8.366;2022-08-21T08:11:41;20.50;99.90
33067;DHT22;19428;49.024;8.366;2022-08-21T08:14:09;20.60;99.90
33067;DHT22;19428;49.024;8.366;2022-08-21T08:16:35;20.80;99.90
33067;DHT22;19428;49.024;8.366;2022-08-21T08:19:01;20.90;99.90
33067;DHT22;19428;49.024;8.366;2022-08-21T08:21:26;20.90;99.90
33067;DHT22;19428;49.024;8.366;2022-08-21T08:23:53;21.20;99.90
33067;DHT22;19428;49.024;8.366;2022-08-21T08:26:18;21.00;99.90
33067;DHT22;19428;49.024;8.366;2022-08-21T08:28:44;21.20;99.90
33067;DHT22;19428;49.024;8.366;2022-08-21T08:31:11;21.30;99.90
33067;DHT22;19428;49.024;8.366;2022-08-21T08:33:37;21.40;99.90
33067;DHT22;19428;49.024;8.366;2022-08-21T08:36:03;21.20;99.90
33067;DHT22;19428;49.024;8.366;2022-08-21T08:38:29;21.50;99.90
33067;DHT22;19428;49.024;8.366;2022-08-21T08:43:32;21.60;99.90
33067;DHT22;19428;49.024;8.366;2022-08-21T08:46:01;21.70;99.90
33067;DHT22;19428;49.024;8.366;2022-08-21T08:51:03;21.80;99.90
33067;DHT22;19428;49.024;8.366;2022-08-21T08:53:34;21.70;99.90
33067;DHT22;19428;49.024;8.366;2022-08-21T08:56:04;21.90;99.90
33067;DHT22;19428;49.024;8.366;2022-08-21T08:58:32;21.90;99.90
33067;DHT22;19428;49.024;8.366;2022-08-21T09:01:00;22.00;99.90
33067;DHT22;19428;49.024;8.366;2022-08-21T09:03:27;22.20;99.90
33067;DHT22;19428;49.024;8.366;2022-08-21T09:06:09;22.20;99.90
33067;DHT22;19428;49.024;8.366;2022-08-21T09:11:50;22.40;99.90
33067;DHT22;19428;49.024;8.366;2022-08-21T09:14:25;22.50;99.90
33067;DHT22;19428;49.024;8.366;2022-08-21T09:17:04;22.50;99.90
33067;DHT22;19428;49.024;8.366;2022-08-21T09:22:30;22.60;99.90
33067;DHT22;19428;49.024;8.366;2022-08-21T09:25:20;22.60;99.90
33067;DHT22;19428;49.024;8.366;2022-08-21T09:27:46;22.90;99.90
33067;DHT22;19428;49.024;8.366;2022-08-21T09:30:12;22.80;99.90
33067;DHT22;19428;49.024;8.366;2022-08-21T09:32:39;22.70;99.90
33067;DHT22;19428;49.024;8.366;2022-08-21T09:35:15;22.80;99.90
33067;DHT22;19428;49.024;8.366;2022-08-21T09:37:54;23.10;99.90
33067;DHT22;19428;49.024;8.366;2022-08-21T09:40:28;23.20;99.90
33067;DHT22;19428;49.024;8.366;2022-08-21T09:43:03;23.50;99.90
33067;DHT22;19428;49.024;8.366;2022-08-21T09:45:29;23.30;99.90
33067;DHT22;19428;49.024;8.366;2022-08-21T09:47:55;23.40;99.90
33067;DHT22;19428;49.024;8.366;2022-08-21T09:50:25;23.60;99.90
33067;DHT22;19428;49.024;8.366;2022-08-21T09:52:55;23.70;99.90
33067;DHT22;19428;49.024;8.366;2022-08-21T09:58:14;23.90;99.90
33067;DHT22;19428;49.024;8.366;2022-08-21T10:00:40;24.30;99.90
33067;DHT22;19428;49.024;8.366;2022-08-21T10:03:11;24.40;99.90
33067;DHT22;19428;49.024;8.366;2022-08-21T10:05:38;24.20;99.90
33067;DHT22;19428;49.024;8.366;2022-08-21T10:08:04;24.20;99.90
33067;DHT22;19428;49.024;8.366;2022-08-21T10:10:32;23.90;99.90
33067;DHT22;19428;49.024;8.366;2022-08-21T10:14:08;23.90;99.90
33067;DHT22;19428;49.024;8.366;2022-08-21T10:16:27;24.00;99.90
33067;DHT22;19428;49.024;8.366;2022-08-21T10:19:23;24.70;99.90
33067;DHT22;19428;49.024;8.366;2022-08-21T10:25:12;25.00;99.90
33067;DHT22;19428;49.024;8.366;2022-08-21T10:28:03;25.40;98.00
33067;DHT22;19428;49.024;8.366;2022-08-21T10:36:06;25.00;96.10
33067;DHT22;19428;49.024;8.366;2022-08-21T10:41:36;25.10;96.20
33067;DHT22;19428;49.024;8.366;2022-08-21T10:44:17;25.50;95.90
33067;DHT22;19428;49.024;8.366;2022-08-21T10:47:02;25.50;95.40
33067;DHT22;19428;49.024;8.366;2022-08-21T10:49:47;25.70;93.50
33067;DHT22;19428;49.024;8.366;2022-08-21T10:52:36;25.50;93.60
33067;DHT22;19428;49.024;8.366;2022-08-21T10:55:32;25.40;93.50
33067;DHT22;19428;49.024;8.366;2022-08-21T10:58:02;25.60;93.80
33067;DHT22;19428;49.024;8.366;2022-08-21T11:00:43;25.50;93.20
33067;DHT22;19428;49.024;8.366;2022-08-21T11:05:58;26.00;92.40
33067;DHT22;19428;49.024;8.366;2022-08-21T11:08:35;25.80;90.80
33067;DHT22;19428;49.024;8.366;2022-08-21T11:11:19;26.00;91.20
33067;DHT22;19428;49.024;8.366;2022-08-21T11:13:54;26.10;90.20
33067;DHT22;19428;49.024;8.366;2022-08-21T11:16:33;26.40;89.80
33067;DHT22;19428;49.024;8.366;2022-08-21T11:24:23;26.30;84.80
33067;DHT22;19428;49.024;8.366;2022-08-21T11:27:05;26.50;81.70
33067;DHT22;19428;49.024;8.366;2022-08-21T11:29:36;26.30;77.80
33067;DHT22;19428;49.024;8.366;2022-08-21T11:34:53;27.10;77.30
33067;DHT22;19428;49.024;8.366;2022-08-21T11:42:56;27.30;67.60
33067;DHT22;19428;49.024;8.366;2022-08-21T11:45:44;27.40;67.30
33067;DHT22;19428;49.024;8.366;2022-08-21T11:51:27;28.50;68.50
33067;DHT22;19428;49.024;8.366;2022-08-21T11:57:07;28.40;68.60
33067;DHT22;19428;49.024;8.366;2022-08-21T11:59:38;27.80;71.50
33067;DHT22;19428;49.024;8.366;2022-08-21T12:02:13;28.30;70.50
33067;DHT22;19428;49.024;8.366;2022-08-21T12:04:53;28.10;71.50
33067;DHT22;19428;49.024;8.366;2022-08-21T12:07:33;29.00;69.80
33067;DHT22;19428;49.024;8.366;2022-08-21T12:10:01;28.80;63.60
33067;DHT22;19428;49.024;8.366;2022-08-21T12:12:31;29.00;63.60
33067;DHT22;19428;49.024;8.366;2022-08-21T12:15:25;29.00;61.00
33067;DHT22;19428;49.024;8.366;2022-08-21T12:17:59;28.90;62.00
33067;DHT22;19428;49.024;8.366;2022-08-21T12:20:39;28.70;62.50
33067;DHT22;19428;49.024;8.366;2022-08-21T12:23:17;28.70;59.90
33067;DHT22;19428;49.024;8.366;2022-08-21T12:26:03;29.60;60.00
33067;DHT22;19428;49.024;8.366;2022-08-21T12:28:34;29.70;58.20
33067;DHT22;19428;49.024;8.366;2022-08-21T12:31:00;29.90;56.30
33067;DHT22;19428;49.024;8.366;2022-08-21T12:33:33;29.60;56.90
33067;DHT22;19428;49.024;8.366;2022-08-21T12:36:07;29.60;58.30
33067;DHT22;19428;49.024;8.366;2022-08-21T12:38:43;29.30;58.00
33067;DHT22;19428;49.024;8.366;2022-08-21T12:41:16;28.50;57.30
33067;DHT22;19428;49.024;8.366;2022-08-21T12:43:51;29.30;56.60
33067;DHT22;19428;49.024;8.366;2022-08-21T12:46:34;29.70;57.60
33067;DHT22;19428;49.024;8.366;2022-08-21T12:49:06;29.50;56.90
33067;DHT22;19428;49.024;8.366;2022-08-21T12:51:46;29.00;58.70
33067;DHT22;19428;49.024;8.366;2022-08-21T12:54:23;29.60;57.30
33067;DHT22;19428;49.024;8.366;2022-08-21T12:57:04;29.90;58.10
33067;DHT22;19428;49.024;8.366;2022-08-21T12:59:31;30.80;54.80
33067;DHT22;19428;49.024;8.366;2022-08-21T13:01:59;30.60;55.50
33067;DHT22;19428;49.024;8.366;2022-08-21T13:04:36;31.20;54.90
33067;DHT22;19428;49.024;8.366;2022-08-21T13:07:10;30.90;54.30
33067;DHT22;19428;49.024;8.366;2022-08-21T13:09:44;30.30;53.60
33067;DHT22;19428;49.024;8.366;2022-08-21T13:12:11;29.20;55.30
33067;DHT22;19428;49.024;8.366;2022-08-21T13:14:40;30.40;53.20
33067;DHT22;19428;49.024;8.366;2022-08-21T13:17:07;30.30;53.10
33067;DHT22;19428;49.024;8.366;2022-08-21T13:19:34;30.00;53.50
33067;DHT22;19428;49.024;8.366;2022-08-21T13:22:00;30.30;53.80
33067;DHT22;19428;49.024;8.366;2022-08-21T13:24:37;30.50;54.00
33067;DHT22;19428;49.024;8.366;2022-08-21T13:27:03;30.70;54.20
33067;DHT22;19428;49.024;8.366;2022-08-21T13:29:33;30.80;54.20
33067;DHT22;19428;49.024;8.366;2022-08-21T13:32:05;30.40;54.10
33067;DHT22;19428;49.024;8.366;2022-08-21T13:34:35;30.50;55.40
33067;DHT22;19428;49.024;8.366;2022-08-21T13:37:04;30.60;55.00
33067;DHT22;19428;49.024;8.366;2022-08-21T13:39:31;30.80;54.40
33067;DHT22;19428;49.024;8.366;2022-08-21T13:42:00;30.50;54.00
33067;DHT22;19428;49.024;8.366;2022-08-21T13:44:40;30.20;53.20
33067;DHT22;19428;49.024;8.366;2022-08-21T13:47:06;29.90;53.00
33067;DHT22;19428;49.024;8.366;2022-08-21T13:49:38;29.70;54.20
33067;DHT22;19428;49.024;8.366;2022-08-21T13:52:14;29.80;53.80
33067;DHT22;19428;49.024;8.366;2022-08-21T13:54:41;28.90;55.70
33067;DHT22;19428;49.024;8.366;2022-08-21T13:57:29;30.30;53.20
33067;DHT22;19428;49.024;8.366;2022-08-21T14:00:14;30.50;52.90
33067;DHT22;19428;49.024;8.366;2022-08-21T14:02:42;30.10;53.90
33067;DHT22;19428;49.024;8.366;2022-08-21T14:05:18;29.90;52.80
33067;DHT22;19428;49.024;8.366;2022-08-21T14:07:44;30.70;53.30
33067;DHT22;19428;49.024;8.366;2022-08-21T14:10:20;30.90;51.10
33067;DHT22;19428;49.024;8.366;2022-08-21T14:13:00;29.90;50.50
33067;DHT22;19428;49.024;8.366;2022-08-21T14:15:29;30.50;50.30
33067;DHT22;19428;49.024;8.366;2022-08-21T14:18:13;31.30;51.30
33067;DHT22;19428;49.024;8.366;2022-08-21T14:20:40;30.40;50.60
33067;DHT22;19428;49.024;8.366;2022-08-21T14:23:05;31.00;50.40
33067;DHT22;19428;49.024;8.366;2022-08-21T14:25:39;31.50;46.80
33067;DHT22;19428;49.024;8.366;2022-08-21T14:28:25;31.60;48.40
33067;DHT22;19428;49.024;8.366;2022-08-21T14:30:53;31.00;49.80
33067;DHT22;19428;49.024;8.366;2022-08-21T14:33:31;31.50;49.30
33067;DHT22;19428;49.024;8.366;2022-08-21T14:35:58;31.60;48.90
33067;DHT22;19428;49.024;8.366;2022-08-21T14:38:26;31.50;48.80
33067;DHT22;19428;49.024;8.366;2022-08-21T14:40:59;31.40;48.30
33067;DHT22;19428;49.024;8.366;2022-08-21T14:43:26;30.90;48.10
33067;DHT22;19428;49.024;8.366;2022-08-21T14:45:53;31.20;46.40
33067;DHT22;19428;49.024;8.366;2022-08-21T14:48:19;31.20;47.50
33067;DHT22;19428;49.024;8.366;2022-08-21T14:50:45;31.40;46.50
33067;DHT22;19428;49.024;8.366;2022-08-21T14:53:10;31.40;46.80
33067;DHT22;19428;49.024;8.366;2022-08-21T14:55:37;30.60;46.80
33067;DHT22;19428;49.024;8.366;2022-08-21T14:58:23;30.30;45.50
33067;DHT22;19428;49.024;8.366;2022-08-21T15:00:50;29.70;47.80
33067;DHT22;19428;49.024;8.366;2022-08-21T15:03:18;29.90;47.10
33067;DHT22;19428;49.024;8.366;2022-08-21T15:05:44;30.20;46.90
33067;DHT22;19428;49.024;8.366;2022-08-21T15:08:09;30.30;46.40
33067;DHT22;19428;49.024;8.366;2022-08-21T15:10:36;30.40;47.10
33067;DHT22;19428;49.024;8.366;2022-08-21T15:13:02;29.80;47.50
33067;DHT22;19428;49.024;8.366;2022-08-21T15:15:34;30.20;47.50
33067;DHT22;19428;49.024;8.366;2022-08-21T15:18:01;30.30;45.90
33067;DHT22;19428;49.024;8.366;2022-08-21T15:20:26;30.30;46.30
33067;DHT22;19428;49.024;8.366;2022-08-21T15:22:52;30.30;43.60
33067;DHT22;19428;49.024;8.366;2022-08-21T15:25:17;30.30;44.70
33067;DHT22;19428;49.024;8.366;2022-08-21T15:27:43;30.30;42.80
33067;DHT22;19428;49.024;8.366;2022-08-21T15:30:09;30.80;43.40
33067;DHT22;19428;49.024;8.366;2022-08-21T15:32:35;30.80;44.40
33067;DHT22;19428;49.024;8.366;2022-08-21T15:35:00;30.20;43.50
33067;DHT22;19428;49.024;8.366;2022-08-21T15:37:27;30.10;43.10
33067;DHT22;19428;49.024;8.366;2022-08-21T15:39:53;30.30;44.10
33067;DHT22;19428;49.024;8.366;2022-08-21T15:42:20;30.90;41.70
33067;DHT22;19428;49.024;8.366;2022-08-21T15:44:47;30.80;41.30
33067;DHT22;19428;49.024;8.366;2022-08-21T15:47:18;30.30;42.60
33067;DHT22;19428;49.024;8.366;2022-08-21T15:49:44;30.00;41.40
33067;DHT22;19428;49.024;8.366;2022-08-21T15:52:19;30.10;43.20
33067;DHT22;19428;49.024;8.366;2022-08-21T15:54:45;29.50;44.30
33067;DHT22;19428;49.024;8.366;2022-08-21T15:57:17;29.70;43.30
33067;DHT22;19428;49.024;8.366;2022-08-21T15:59:47;29.70;42.40
33067;DHT22;19428;49.024;8.366;2022-08-21T16:02:20;29.80;42.80
33067;DHT22;19428;49.024;8.366;2022-08-21T16:04:47;30.20;43.60
33067;DHT22;19428;49.024;8.366;2022-08-21T16:07:13;30.30;40.90
33067;DHT22;19428;49.024;8.366;2022-08-21T16:09:38;30.20;42.50
33067;DHT22;19428;49.024;8.366;2022-08-21T16:12:05;29.80;39.80
33067;DHT22;19428;49.024;8.366;2022-08-21T16:14:32;29.80;40.90
33067;DHT22;19428;49.024;8.366;2022-08-21T16:16:59;29.80;41.10
33067;DHT22;19428;49.024;8.366;2022-08-21T16:19:27;29.80;40.80
33067;DHT22;19428;49.024;8.366;2022-08-21T16:21:53;30.30;41.60
33067;DHT22;19428;49.024;8.366;2022-08-21T16:24:19;30.80;41.10
33067;DHT22;19428;49.024;8.366;2022-08-21T16:26:45;31.10;41.30
33067;DHT22;19428;49.024;8.366;2022-08-21T16:29:11;30.00;40.30
33067;DHT22;19428;49.024;8.366;2022-08-21T16:31:37;29.60;41.40
33067;DHT22;19428;49.024;8.366;2022-08-21T16:34:02;29.70;41.40